Time;durP1;ratioP1;P1;durP2;ratioP2;P2;SDS_P1;SDS_P2;PMS_P1;PMS_P2;Temp;Humidity;BMP_temperature;BMP_pressure;BME280_temperature;BME280_humidity;BME280_pressure;Samples;Min_cycle;Max_cycle;Signal;HPM_P1;HPM_P2
2022/03/12 00:01:54;;;;;;;;;5.20;5.20;;;;;9.57;30.41;99841.00;5116529;28;8832;-65
2022/03/12 00:04:21;;;;;;;;;3.80;3.00;;;;;9.54;30.34;99829.75;5117291;28;8840;-65
2022/03/12 00:06:49;;;;;;;;;9.00;8.40;;;;;9.51;30.84;99830.00;5116820;28;9553;-67
2022/03/12 00:09:17;;;;;;;;;6.80;4.80;;;;;9.50;30.41;99823.81;5096847;28;8834;-65
2022/03/12 00:11:49;;;;;;;;;8.20;6.60;;;;;9.51;30.34;99830.00;5097163;28;8848;-69
2022/03/12 00:14:21;;;;;;;;;1.00;1.00;;;;;9.49;30.98;99822.13;5097552;28;8841;-65
2022/03/12 00:16:49;;;;;;;;;6.40;6.40;;;;;9.48;30.57;99815.13;5096525;28;8903;-66
2022/03/12 00:19:17;;;;;;;;;9.00;8.60;;;;;9.48;30.49;99815.13;5116834;28;8832;-65
2022/03/12 00:21:47;;;;;;;;;6.20;6.00;;;;;9.47;30.56;99823.22;5117088;28;8839;-68
2022/03/12 00:24:15;;;;;;;;;7.40;6.20;;;;;9.45;30.86;99819.84;5117242;28;8832;-65
2022/03/12 00:26:43;;;;;;;;;6.00;4.80;;;;;9.44;30.62;99828.78;5117341;28;8955;-65
2022/03/12 00:29:13;;;;;;;;;7.40;7.00;;;;;9.43;30.93;99827.09;5095544;28;8856;-65
2022/03/12 00:31:41;;;;;;;;;9.00;7.00;;;;;9.41;30.87;99827.19;5095459;28;8852;-65
2022/03/12 00:34:09;;;;;;;;;7.00;6.00;;;;;9.41;30.91;99829.84;5095609;28;8860;-69
2022/03/12 00:36:37;;;;;;;;;5.60;4.80;;;;;9.41;30.79;99835.16;5095173;28;9573;-66
2022/03/12 00:39:04;;;;;;;;;3.00;1.00;;;;;9.41;30.74;99835.16;5113001;28;8828;-66
2022/03/12 00:41:32;;;;;;;;;5.20;5.20;;;;;9.42;31.01;99820.09;5115324;28;8840;-65
2022/03/12 00:44:00;;;;;;;;;4.00;4.00;;;;;9.44;30.75;99816.34;5115509;28;8828;-65
2022/03/12 00:46:28;;;;;;;;;7.00;6.20;;;;;9.44;31.03;99820.81;5115068;28;8858;-66
2022/03/12 00:48:55;;;;;;;;;7.00;6.00;;;;;9.44;31.32;99824.31;5097118;28;8828;-66
2022/03/12 00:51:23;;;;;;;;;6.00;6.00;;;;;9.43;30.95;99821.78;5095037;28;8834;-65
2022/03/12 00:53:51;;;;;;;;;5.20;4.80;;;;;9.42;31.30;99820.91;5095696;28;8834;-65
2022/03/12 00:56:19;;;;;;;;;5.20;5.20;;;;;9.43;30.70;99817.28;5096254;28;8869;-65
2022/03/12 00:58:47;;;;;;;;;6.00;5.60;;;;;9.43;30.68;99816.44;5111911;28;8824;-65
2022/03/12 01:01:14;;;;;;;;;1.80;1.80;;;;;9.44;30.92;99820.81;5115962;28;8816;-64
2022/03/12 01:03:42;;;;;;;;;6.40;6.40;;;;;9.44;31.06;99820.81;5116469;28;8846;-65
2022/03/12 01:06:11;;;;;;;;;7.00;6.40;;;;;9.45;31.23;99819.84;5116406;28;8863;-66
2022/03/12 01:08:39;;;;;;;;;6.40;6.40;;;;;9.45;31.04;99815.38;5101900;28;8806;-65
2022/03/12 01:11:06;;;;;;;;;7.00;6.60;;;;;9.47;30.87;99813.44;5096043;28;8826;-66
2022/03/12 01:13:34;;;;;;;;;8.60;7.40;;;;;9.46;30.79;99814.41;5096119;28;8845;-65
2022/03/12 01:16:02;;;;;;;;;7.20;6.00;;;;;9.47;30.88;99804.59;5096239;28;8822;-64
2022/03/12 01:18:30;;;;;;;;;6.80;6.80;;;;;9.48;30.71;99807.16;5108282;28;8826;-67
2022/03/12 01:20:57;;;;;;;;;6.20;4.80;;;;;9.47;30.94;99809.91;5115533;28;8851;-66
2022/03/12 01:23:25;;;;;;;;;4.80;4.80;;;;;9.45;30.80;99812.72;5116337;28;8876;-66
2022/03/12 01:25:52;;;;;;;;;6.80;6.00;;;;;9.44;31.00;99805.72;5116638;28;8845;-66
2022/03/12 01:28:21;;;;;;;;;10.00;7.40;;;;;9.45;30.64;99810.06;5104363;28;8830;-65
2022/03/12 01:30:48;;;;;;;;;9.40;6.40;;;;;9.46;31.08;99806.44;5095424;28;8892;-66
2022/03/12 01:33:17;;;;;;;;;4.40;4.00;;;;;9.47;30.86;99817.91;5095933;28;8852;-65
2022/03/12 01:35:44;;;;;;;;;6.00;5.60;;;;;9.47;30.95;99812.59;5095189;28;8847;-66
2022/03/12 01:38:12;;;;;;;;;5.60;4.40;;;;;9.48;31.39;99817.78;5105147;28;9632;-66
2022/03/12 01:40:40;;;;;;;;;6.00;6.00;;;;;9.48;31.01;99820.44;5115975;28;8820;-66
2022/03/12 01:43:08;;;;;;;;;4.00;3.20;;;;;9.48;31.20;99814.31;5114967;28;8836;-65
2022/03/12 01:45:36;;;;;;;;;5.60;5.60;;;;;9.47;30.96;99817.91;5116363;28;8832;-66
2022/03/12 01:48:04;;;;;;;;;8.20;7.40;;;;;9.45;31.11;99814.53;5106871;28;8848;-65
2022/03/12 01:50:32;;;;;;;;;6.80;6.80;;;;;9.44;30.86;99812.84;5095782;28;8862;-65
2022/03/12 01:52:59;;;;;;;;;6.00;5.60;;;;;9.44;30.89;99824.31;5095535;28;8850;-65
2022/03/12 01:55:30;;;;;;;;;2.80;2.20;;;;;9.42;31.28;99825.41;5095855;28;8837;-66
2022/03/12 01:58:02;;;;;;;;;6.00;5.60;;;;;9.39;31.12;99831.78;5102437;28;8847;-65
2022/03/12 02:00:30;;;;;;;;;6.20;6.00;;;;;9.38;31.32;99819.47;5114687;28;8835;-66
2022/03/12 02:02:59;;;;;;;;;7.80;7.80;;;;;9.36;31.26;99832.03;5115460;28;8999;-66
2022/03/12 02:05:27;;;;;;;;;4.80;4.00;;;;;9.34;31.17;99828.63;5115332;28;9505;-66
2022/03/12 02:07:56;;;;;;;;;3.60;3.60;;;;;9.31;31.79;99828.00;5104838;28;8946;-65
2022/03/12 02:10:24;;;;;;;;;6.00;6.00;;;;;9.29;30.74;99825.50;5094633;28;8834;-66
2022/03/12 02:12:52;;;;;;;;;4.60;3.60;;;;;9.28;31.12;99823.78;5095032;28;8852;-65
2022/03/12 02:15:22;;;;;;;;;8.20;8.20;;;;;9.30;31.14;99835.16;5094910;28;8850;-66
2022/03/12 02:17:50;;;;;;;;;4.80;4.80;;;;;9.31;31.29;99835.97;5103846;28;8820;-66
2022/03/12 02:20:18;;;;;;;;;7.00;7.00;;;;;9.29;31.66;99828.16;5114817;28;8855;-66
2022/03/12 02:22:53;;;;;;;;;1.00;1.00;;;;;9.26;31.12;99828.38;5115222;28;8792;-66
2022/03/12 02:25:20;;;;;;;;;9.80;7.80;;;;;9.22;31.40;99831.38;5115698;28;9025;-66
2022/03/12 02:27:49;;;;;;;;;7.40;7.40;;;;;9.19;31.37;99834.28;5106197;28;8848;-66
2022/03/12 02:30:16;;;;;;;;;8.60;8.20;;;;;9.19;31.55;99835.09;5094108;28;8964;-66
2022/03/12 02:32:44;;;;;;;;;7.00;7.00;;;;;9.18;31.60;99843.22;5093439;28;8822;-66
2022/03/12 02:35:12;;;;;;;;;6.40;6.00;;;;;9.18;31.72;99848.53;5093804;28;8814;-66
2022/03/12 02:37:48;;;;;;;;;7.80;5.80;;;;;9.15;32.03;99844.28;5101147;28;8828;-65
2022/03/12 02:40:16;;;;;;;;;1.80;1.80;;;;;9.15;32.06;99851.38;5114864;28;8824;-66
2022/03/12 02:42:44;;;;;;;;;6.00;4.00;;;;;9.16;31.71;99847.78;5114908;28;8847;-65
2022/03/12 02:45:12;;;;;;;;;5.20;4.40;;;;;9.19;31.70;99848.38;5114512;28;8839;-65
2022/03/12 02:47:40;;;;;;;;;7.00;7.00;;;;;9.21;31.21;99845.63;5108401;28;8830;-65
2022/03/12 02:50:08;;;;;;;;;6.00;5.20;;;;;9.20;31.74;99852.72;5094722;28;8858;-65
2022/03/12 02:52:38;;;;;;;;;6.80;6.40;;;;;9.21;31.65;99849.16;5095013;28;8837;-66
2022/03/12 02:55:05;;;;;;;;;8.20;6.60;;;;;9.24;31.85;99851.56;5094989;28;8974;-66
2022/03/12 02:57:33;;;;;;;;;7.80;6.60;;;;;9.27;31.66;99858.44;5099630;28;8828;-66
2022/03/12 03:00:04;;;;;;;;;8.20;6.20;;;;;9.28;32.03;99857.47;5114863;28;8820;-66
2022/03/12 03:02:39;;;;;;;;;7.00;6.40;;;;;9.29;32.34;99853.84;5115540;28;8824;-66
2022/03/12 03:05:08;;;;;;;;;10.00;7.60;;;;;9.28;31.71;99847.69;5114914;28;8816;-70
2022/03/12 03:07:37;;;;;;;;;8.60;7.40;;;;;9.28;31.56;99845.03;5108465;28;8830;-65
2022/03/12 03:10:05;;;;;;;;;9.00;8.20;;;;;9.28;31.78;99855.66;5094936;28;8862;-65
2022/03/12 03:12:34;;;;;;;;;4.00;4.00;;;;;9.28;31.84;99863.63;5094611;28;8830;-65
2022/03/12 03:15:02;;;;;;;;;6.80;6.00;;;;;9.30;32.02;99867.03;5094608;28;8826;-65
2022/03/12 03:17:29;;;;;;;;;6.40;6.20;;;;;9.29;32.18;99873.31;5098542;28;8836;-65
2022/03/12 03:19:57;;;;;;;;;6.00;4.00;;;;;9.29;32.37;99877.78;5114784;28;8859;-65
2022/03/12 03:22:25;;;;;;;;;6.00;6.00;;;;;9.28;32.27;99876.91;5114477;28;8905;-65
2022/03/12 03:24:53;;;;;;;;;4.00;3.80;;;;;9.28;32.18;99878.75;5117798;28;8834;-65
2022/03/12 03:27:21;;;;;;;;;4.40;4.00;;;;;9.28;31.80;99878.75;5115441;28;8968;-65
2022/03/12 03:29:48;;;;;;;;;3.60;3.20;;;;;9.27;31.94;99879.72;5098232;28;8837;-65
2022/03/12 03:32:17;;;;;;;;;7.80;7.80;;;;;9.29;31.85;99891.91;5097371;28;8842;-65
2022/03/12 03:34:44;;;;;;;;;11.00;7.60;;;;;9.29;32.56;99891.06;5098062;28;8834;-65
2022/03/12 03:37:13;;;;;;;;;8.60;7.00;;;;;9.29;32.16;99883.94;5098998;28;8834;-65
2022/03/12 03:39:41;;;;;;;;;4.00;4.00;;;;;9.29;32.57;99897.22;5116641;28;8863;-65
2022/03/12 03:42:08;;;;;;;;;9.60;7.80;;;;;9.28;32.37;99894.69;5116233;28;9816;-66
2022/03/12 03:44:36;;;;;;;;;7.40;6.00;;;;;9.24;32.51;99891.41;5117568;28;8835;-65
2022/03/12 03:47:04;;;;;;;;;8.60;7.80;;;;;9.22;32.75;99898.66;5116954;28;8970;-65
2022/03/12 03:49:32;;;;;;;;;7.00;7.00;;;;;9.21;32.95;99912.03;5096970;28;8849;-65
2022/03/12 03:51:59;;;;;;;;;6.80;6.00;;;;;9.18;32.63;99905.13;5095605;28;8857;-65
2022/03/12 03:54:29;;;;;;;;;7.40;6.00;;;;;9.15;32.89;99901.88;5097917;28;8830;-65
2022/03/12 03:56:57;;;;;;;;;5.80;5.40;;;;;9.12;32.54;99915.38;5097174;28;8848;-65
2022/03/12 03:59:25;;;;;;;;;7.00;7.00;;;;;9.11;32.73;99905.72;5097325;28;8822;-65
2022/03/12 04:01:52;;;;;;;;;11.40;8.60;;;;;9.09;33.17;99912.94;5097795;28;8944;-65
2022/03/12 04:04:20;;;;;;;;;6.80;5.80;;;;;9.04;33.47;99909.78;5097498;28;8838;-65
2022/03/12 04:06:48;;;;;;;;;9.20;9.20;;;;;9.01;33.32;99908.22;5097470;28;8838;-65
2022/03/12 04:09:16;;;;;;;;;9.80;9.20;;;;;8.96;33.72;99906.84;5115035;28;8898;-65
2022/03/12 04:11:44;;;;;;;;;5.60;4.00;;;;;8.90;33.55;99917.94;5117307;28;8854;-67
2022/03/12 04:14:12;;;;;;;;;6.00;4.00;;;;;8.85;33.34;99910.28;5117370;28;8853;-66
2022/03/12 04:16:45;;;;;;;;;7.40;7.40;;;;;8.81;33.60;99914.13;5117384;28;8844;-66
2022/03/12 04:19:14;;;;;;;;;9.20;6.80;;;;;8.77;34.03;99919.78;5099263;28;9487;-67
2022/03/12 04:21:42;;;;;;;;;9.00;6.40;;;;;8.75;34.10;99919.03;5097228;28;9620;-65
2022/03/12 04:24:10;;;;;;;;;6.00;4.40;;;;;8.74;33.78;99923.50;5096979;28;8930;-65
2022/03/12 04:26:40;;;;;;;;;6.80;6.60;;;;;8.73;33.90;99927.09;5106890;28;8824;-65
2022/03/12 04:29:09;;;;;;;;;6.20;4.40;;;;;8.74;34.17;99930.63;5117883;28;8858;-65
2022/03/12 04:31:36;;;;;;;;;5.60;4.40;;;;;8.73;34.38;99919.16;5117016;28;8877;-64
2022/03/12 04:34:05;;;;;;;;;6.00;4.00;;;;;8.73;34.32;99926.28;5109807;28;8838;-65
2022/03/12 04:36:36;;;;;;;;;7.80;7.80;;;;;8.77;33.91;99933.03;5105606;28;8955;-65
2022/03/12 04:39:05;;;;;;;;;7.80;6.00;;;;;8.75;34.47;99937.63;5117131;28;8844;-65
2022/03/12 04:41:34;;;;;;;;;9.00;9.00;;;;;8.73;34.24;99934.25;5116964;28;9517;-65
2022/03/12 04:44:02;;;;;;;;;10.20;8.80;;;;;8.73;34.47;99942.19;5116812;28;9598;-65
2022/03/12 04:46:30;;;;;;;;;7.00;7.00;;;;;8.70;34.68;99939.75;5108136;28;8810;-65
2022/03/12 04:48:58;;;;;;;;;7.80;7.80;;;;;8.67;34.47;99938.16;5096154;28;8836;-65
2022/03/12 04:51:25;;;;;;;;;8.20;8.00;;;;;8.64;34.50;99943.69;5096731;28;8834;-65
2022/03/12 04:53:53;;;;;;;;;10.00;10.00;;;;;8.63;34.28;99941.16;5096231;28;8966;-65
2022/03/12 04:56:21;;;;;;;;;9.20;7.80;;;;;8.62;34.37;99937.66;5102577;28;8808;-65
2022/03/12 04:58:49;;;;;;;;;7.00;7.00;;;;;8.62;34.93;99935.00;5114555;28;8832;-66
2022/03/12 05:01:17;;;;;;;;;7.40;7.00;;;;;8.61;35.01;99937.75;5115302;28;8832;-64
2022/03/12 05:03:45;;;;;;;;;7.00;7.00;;;;;8.59;35.06;99945.81;5116482;28;8985;-64
2022/03/12 05:06:13;;;;;;;;;5.20;3.80;;;;;8.60;35.26;99938.72;5110900;28;8834;-65
2022/03/12 05:08:40;;;;;;;;;3.80;3.80;;;;;8.59;35.64;99937.03;5096273;28;8834;-65
2022/03/12 05:11:08;;;;;;;;;5.60;5.60;;;;;8.59;35.21;99939.69;5095841;28;8852;-65
2022/03/12 05:13:36;;;;;;;;;9.40;7.00;;;;;8.57;35.70;99929.16;5095595;28;8845;-65
2022/03/12 05:16:06;;;;;;;;;10.20;9.00;;;;;8.55;35.79;99922.28;5099535;28;9470;-65
2022/03/12 05:18:34;;;;;;;;;7.00;6.20;;;;;8.55;35.86;99933.75;5116148;28;9532;-66
2022/03/12 05:21:02;;;;;;;;;11.20;10.00;;;;;8.56;35.84;99932.78;5115703;28;8901;-65
2022/03/12 05:23:29;;;;;;;;;9.80;9.00;;;;;8.55;36.34;99939.06;5115951;28;8958;-65
2022/03/12 05:25:57;;;;;;;;;9.80;7.60;;;;;8.56;36.23;99937.22;5112876;28;8820;-64
2022/03/12 05:28:27;;;;;;;;;3.00;3.00;;;;;8.54;36.12;99945.31;5095965;28;9539;-65
2022/03/12 05:30:59;;;;;;;;;9.60;8.60;;;;;8.55;35.95;99946.16;5095636;28;8826;-65
2022/03/12 05:33:27;;;;;;;;;9.00;8.20;;;;;8.54;36.56;99947.97;5095270;28;8975;-65
2022/03/12 05:35:54;;;;;;;;;9.40;6.60;;;;;8.52;37.11;99949.03;5097281;28;8918;-66
2022/03/12 05:38:23;;;;;;;;;11.00;10.80;;;;;8.50;37.11;99951.78;5115658;28;8831;-65
2022/03/12 05:40:50;;;;;;;;;9.80;8.80;;;;;8.46;36.70;99960.09;5115805;28;8831;-64
2022/03/12 05:43:18;;;;;;;;;12.00;6.00;;;;;8.42;37.07;99958.59;5115097;28;8953;-64
2022/03/12 05:45:46;;;;;;;;;6.00;5.20;;;;;8.38;37.22;99963.25;5113335;28;8850;-64
2022/03/12 05:48:15;;;;;;;;;3.80;3.80;;;;;8.31;37.82;99956.72;5095039;28;8814;-66
2022/03/12 05:50:42;;;;;;;;;6.20;5.20;;;;;8.26;37.90;99958.84;5111000;28;8828;-64
2022/03/12 05:53:10;;;;;;;;;9.40;7.80;;;;;8.21;37.83;99960.94;5114437;28;9757;-64
2022/03/12 05:55:38;;;;;;;;;4.40;4.40;;;;;8.17;38.12;99966.53;5114620;28;8820;-65
2022/03/12 05:58:07;;;;;;;;;7.60;6.00;;;;;8.12;38.16;99961.56;5115516;28;8928;-64
2022/03/12 06:00:35;;;;;;;;;7.00;6.00;;;;;8.05;38.26;99965.59;5099616;28;9480;-65
2022/03/12 06:03:03;;;;;;;;;7.80;7.00;;;;;8.00;38.59;99956.25;5094596;28;8841;-65
2022/03/12 06:05:31;;;;;;;;;6.80;6.40;;;;;7.97;39.20;99962.63;5095040;28;8981;-65
2022/03/12 06:07:59;;;;;;;;;7.00;4.80;;;;;7.97;39.30;99965.28;5094420;28;8976;-65
2022/03/12 06:10:28;;;;;;;;;8.80;6.40;;;;;7.94;39.12;99962.84;5109059;28;8830;-64
2022/03/12 06:12:57;;;;;;;;;7.00;7.00;;;;;7.93;39.33;99963.81;5115379;28;8840;-64
2022/03/12 06:15:25;;;;;;;;;7.00;7.00;;;;;7.93;39.77;99969.09;5114723;28;8946;-64
2022/03/12 06:17:53;;;;;;;;;4.00;3.00;;;;;7.94;39.56;99962.84;5114869;28;8835;-64
2022/03/12 06:20:21;;;;;;;;;6.00;5.60;;;;;7.97;39.77;99972.38;5101925;28;8846;-64
2022/03/12 06:22:49;;;;;;;;;6.80;6.80;;;;;7.98;39.87;99969.63;5094796;28;9583;-65
2022/03/12 06:25:17;;;;;;;;;7.80;6.60;;;;;8.00;40.10;99978.31;5093773;28;9890;-64
2022/03/12 06:27:47;;;;;;;;;5.20;4.40;;;;;8.03;40.27;100001.97;5094838;28;8957;-64
2022/03/12 06:30:16;;;;;;;;;3.80;3.80;;;;;8.05;40.42;100000.06;5105378;28;9474;-64
2022/03/12 06:32:44;;;;;;;;;6.00;6.00;;;;;8.06;40.31;99999.09;5114300;28;9509;-64
2022/03/12 06:35:12;;;;;;;;;3.00;3.00;;;;;8.07;40.38;100007.91;5114588;28;8852;-64
2022/03/12 06:37:40;;;;;;;;;7.00;6.00;;;;;8.05;40.60;99994.75;5110219;28;8810;-65
2022/03/12 06:40:09;;;;;;;;;1.20;1.20;;;;;8.06;40.39;100009.72;5093939;28;8838;-64
2022/03/12 06:42:37;;;;;;;;;6.20;6.20;;;;;8.08;40.65;99999.00;5094662;28;8898;-64
2022/03/12 06:45:05;;;;;;;;;1.80;1.00;;;;;8.12;41.17;99995.19;5094748;28;8830;-65
2022/03/12 06:47:33;;;;;;;;;4.00;4.00;;;;;8.17;41.31;100001.03;5096343;28;8984;-64
2022/03/12 06:50:01;;;;;;;;;6.80;6.80;;;;;8.21;41.45;100007.88;5114639;28;8843;-64
2022/03/12 06:52:29;;;;;;;;;9.00;9.00;;;;;8.23;41.46;100011.25;5113956;28;8908;-65
2022/03/12 06:54:57;;;;;;;;;6.00;6.00;;;;;8.24;41.00;100008.50;5114146;28;8854;-64
2022/03/12 06:57:25;;;;;;;;;4.40;4.40;;;;;8.25;41.35;100009.34;5113969;28;8820;-67
2022/03/12 06:59:52;;;;;;;;;6.40;5.40;;;;;8.25;41.63;100017.28;5097305;28;8984;-64
2022/03/12 07:02:20;;;;;;;;;6.80;6.40;;;;;8.26;41.70;100011.88;5097204;28;9487;-64
2022/03/12 07:04:48;;;;;;;;;2.20;2.20;;;;;8.28;41.45;100009.13;5097436;28;8906;-64
2022/03/12 07:07:16;;;;;;;;;7.80;6.60;;;;;8.28;41.93;100009.97;5097136;28;8968;-65
2022/03/12 07:09:44;;;;;;;;;6.20;3.60;;;;;8.30;42.28;100007.22;5077386;28;9680;-65
2022/03/12 07:12:12;;;;;;;;;7.00;6.60;;;;;8.30;42.73;100008.06;5077027;28;8824;-67
2022/03/12 07:14:41;;;;;;;;;6.20;6.00;;;;;8.32;42.61;100016.78;5077850;28;8990;-64
2022/03/12 07:17:09;;;;;;;;;8.60;8.60;;;;;8.38;43.17;100016.31;5077438;28;8854;-64
2022/03/12 07:19:36;;;;;;;;;7.20;7.20;;;;;8.41;43.07;100016.13;5115481;28;8848;-65
2022/03/12 07:22:04;;;;;;;;;6.20;6.20;;;;;8.45;43.64;100016.75;5116989;28;9521;-65
2022/03/12 07:24:32;;;;;;;;;6.40;6.00;;;;;8.49;42.94;100019.09;5117251;28;8950;-65
2022/03/12 07:27:02;;;;;;;;;7.00;7.00;;;;;8.54;43.26;100024.06;5117481;28;8811;-65
2022/03/12 07:29:32;;;;;;;;;6.80;6.80;;;;;8.59;43.27;100024.63;5098289;28;8841;-65
2022/03/12 07:31:59;;;;;;;;;5.20;4.80;;;;;8.62;43.45;100025.25;5096447;28;8829;-65
2022/03/12 07:34:27;;;;;;;;;9.20;7.20;;;;;8.67;43.32;100031.06;5096887;28;8826;-65
2022/03/12 07:36:57;;;;;;;;;8.20;7.40;;;;;8.72;43.00;100031.59;5097638;28;8838;-64
2022/03/12 07:39:24;;;;;;;;;6.00;5.00;;;;;8.78;43.13;100039.13;5096843;28;8853;-64
2022/03/12 07:41:52;;;;;;;;;7.00;7.00;;;;;8.83;43.23;100030.84;5076416;28;9547;-64
2022/03/12 07:44:20;;;;;;;;;7.80;6.60;;;;;8.89;42.86;100035.72;5076481;28;8828;-65
2022/03/12 07:46:48;;;;;;;;;3.20;3.20;;;;;8.97;43.04;100038.69;5091805;28;8806;-64
2022/03/12 07:49:15;;;;;;;;;6.60;4.40;;;;;9.07;42.94;100037.91;5097199;28;8869;-65
2022/03/12 07:51:44;;;;;;;;;6.20;5.20;;;;;9.19;42.53;100042.31;5096208;28;8892;-65
2022/03/12 07:54:13;;;;;;;;;6.20;6.20;;;;;9.32;42.45;100037.81;5101947;28;9574;-65
2022/03/12 07:56:41;;;;;;;;;8.60;6.40;;;;;9.40;42.37;100054.06;5117141;28;8831;-65
2022/03/12 07:59:08;;;;;;;;;9.40;9.40;;;;;9.49;42.53;100053.38;5117224;28;8842;-65
2022/03/12 08:01:36;;;;;;;;;6.00;4.00;;;;;9.58;42.16;100046.53;5116771;28;8978;-65
2022/03/12 08:04:04;;;;;;;;;3.00;3.00;;;;;9.76;42.11;100048.69;5115988;28;8828;-67
2022/03/12 08:06:33;;;;;;;;;9.00;9.00;;;;;9.94;41.46;100051.78;5116552;28;8824;-64
2022/03/12 08:09:00;;;;;;;;;5.60;4.80;;;;;10.05;41.99;100052.69;5116456;28;8832;-64
2022/03/12 08:11:29;;;;;;;;;6.00;6.00;;;;;10.21;41.50;100057.69;5098963;28;8814;-65
2022/03/12 08:13:57;;;;;;;;;8.20;6.60;;;;;10.29;41.73;100053.50;5096645;28;8897;-64
2022/03/12 08:16:28;;;;;;;;;11.80;10.20;;;;;10.40;41.47;100045.50;5096501;28;8868;-64
2022/03/12 08:18:56;;;;;;;;;5.20;4.40;;;;;10.54;41.60;100050.63;5096160;28;8838;-64
2022/03/12 08:21:23;;;;;;;;;4.00;3.40;;;;;10.70;41.61;100042.28;5096397;28;8861;-64
2022/03/12 08:23:52;;;;;;;;;9.00;7.00;;;;;10.83;41.75;100043.88;5096102;28;8822;-64
2022/03/12 08:26:20;;;;;;;;;9.00;8.25;;;;;11.00;41.60;100029.22;5096244;28;8867;-65
2022/03/12 08:28:47;;;;;;;;;4.00;3.50;;;;;11.18;41.75;100031.25;5106865;28;8836;-64
2022/03/12 08:31:15;;;;;;;;;0.00;0.00;;;;;11.44;41.25;100034.47;5115121;28;8878;-64
2022/03/12 08:33:43;;;;;;;;;6.75;6.50;;;;;11.65;40.96;100043.38;5115136;28;8855;-65
2022/03/12 08:36:11;;;;;;;;;7.50;7.00;;;;;11.79;41.28;100035.97;5112324;28;8855;-65
2022/03/12 08:38:39;;;;;;;;;13.50;11.50;;;;;12.00;40.50;100039.50;5115467;28;8962;-64
2022/03/12 08:41:11;;;;;;;;;6.50;6.00;;;;;12.18;40.67;100032.59;5115176;28;8824;-65
2022/03/12 08:43:39;;;;;;;;;13.75;11.50;;;;;12.39;40.56;100042.28;5116058;28;8966;-65
2022/03/12 08:46:07;;;;;;;;;6.50;5.75;;;;;12.60;40.36;100037.78;5116905;28;8865;-66
2022/03/12 08:48:35;;;;;;;;;3.75;2.50;;;;;12.81;40.47;100035.94;5106608;28;8973;-64
2022/03/12 08:51:03;;;;;;;;;6.50;6.25;;;;;12.97;40.72;100038.13;5095606;28;8846;-67
2022/03/12 08:53:31;;;;;;;;;7.25;6.50;;;;;13.18;40.09;100041.59;5094718;28;8868;-64
2022/03/12 08:56:00;;;;;;;;;9.00;9.00;;;;;13.30;40.39;100059.22;5096270;28;8863;-64
2022/03/12 08:58:30;;;;;;;;;9.00;7.00;;;;;13.32;40.22;100060.78;5095958;28;8837;-65
2022/03/12 09:00:57;;;;;;;;;12.00;7.50;;;;;13.41;40.13;100059.09;5096025;28;8840;-66
2022/03/12 09:03:25;;;;;;;;;8.25;7.75;;;;;13.52;40.35;100064.38;5095695;28;8976;-65
2022/03/12 09:05:53;;;;;;;;;4.50;4.00;;;;;13.67;40.01;100060.31;5095220;28;8884;-65
2022/03/12 09:08:21;;;;;;;;;6.75;4.00;;;;;13.75;40.34;100057.78;5094727;28;8846;-65
2022/03/12 09:10:49;;;;;;;;;8.50;8.50;;;;;13.81;40.00;100052.69;5104040;28;8820;-68
2022/03/12 09:13:18;;;;;;;;;2.00;2.00;;;;;13.79;39.99;100054.69;5115327;28;8854;-65
2022/03/12 09:15:46;;;;;;;;;11.00;11.00;;;;;13.79;40.21;100065.38;5115629;28;8929;-64
2022/03/12 09:18:15;;;;;;;;;5.50;5.50;;;;;13.77;40.62;100069.19;5115355;28;8844;-65
2022/03/12 09:20:47;;;;;;;;;6.00;6.00;;;;;13.77;40.14;100072.72;5113901;28;8875;-65
2022/03/12 09:23:14;;;;;;;;;10.00;9.00;;;;;13.78;40.67;100077.09;5115523;28;8828;-68
2022/03/12 09:25:42;;;;;;;;;7.50;7.50;;;;;13.75;41.01;100073.84;5115454;28;8886;-65
2022/03/12 09:28:10;;;;;;;;;2.50;0.75;;;;;13.82;40.51;100074.97;5114641;28;8827;-66
2022/03/12 09:30:38;;;;;;;;;12.50;11.00;;;;;13.91;40.50;100068.78;5113119;28;8912;-65
2022/03/12 09:33:06;;;;;;;;;6.00;6.00;;;;;13.92;40.78;100065.97;5113320;28;9778;-68
2022/03/12 09:35:34;;;;;;;;;7.50;7.50;;;;;13.88;40.54;100074.44;5097682;28;8852;-64
2022/03/12 09:38:02;;;;;;;;;9.00;9.00;;;;;13.83;40.59;100087.38;5094233;28;8841;-65
2022/03/12 09:40:30;;;;;;;;;5.00;5.00;;;;;13.85;40.41;100090.75;5093977;28;8838;-65
2022/03/12 09:42:58;;;;;;;;;12.00;10.50;;;;;13.91;40.85;100085.69;5094425;28;8852;-65
2022/03/12 09:45:26;;;;;;;;;6.00;6.00;;;;;14.01;40.23;100083.88;5094692;28;8845;-65
2022/03/12 09:47:53;;;;;;;;;7.50;6.75;;;;;14.06;40.45;100080.75;5094950;28;8850;-65
2022/03/12 09:50:21;;;;;;;;;9.00;9.00;;;;;14.03;40.73;100078.38;5093620;28;8861;-64
2022/03/12 09:52:49;;;;;;;;;8.00;6.00;;;;;14.04;40.07;100077.41;5093976;28;8964;-64
2022/03/12 09:55:18;;;;;;;;;5.00;5.00;;;;;14.09;40.68;100083.16;5093339;28;8960;-64
2022/03/12 09:57:47;;;;;;;;;6.50;6.25;;;;;14.18;40.28;100083.19;5094514;28;8880;-64
2022/03/12 10:00:14;;;;;;;;;7.00;7.00;;;;;14.28;40.49;100086.69;5100559;28;8827;-64
2022/03/12 10:02:42;;;;;;;;;9.25;8.00;;;;;14.44;40.15;100078.09;5114001;28;8908;-66
2022/03/12 10:05:13;;;;;;;;;4.25;4.25;;;;;14.65;40.23;100078.78;5114594;28;9655;-64
2022/03/12 10:07:41;;;;;;;;;7.75;7.25;;;;;14.95;39.78;100074.00;5114810;28;8965;-65
2022/03/12 10:10:09;;;;;;;;;8.00;7.00;;;;;15.47;39.40;100080.63;5114657;28;8823;-65
2022/03/12 10:12:36;;;;;;;;;12.00;10.00;;;;;16.12;38.00;100075.78;5113748;28;8862;-65
2022/03/12 10:15:04;;;;;;;;;7.00;7.00;;;;;16.71;37.67;100068.72;5113449;28;8867;-66
2022/03/12 10:17:32;;;;;;;;;7.00;6.50;;;;;17.40;36.91;100068.66;5113749;28;8816;-65
2022/03/12 10:20:00;;;;;;;;;3.25;2.00;;;;;18.03;35.80;100068.00;5113662;28;8836;-66
2022/03/12 10:22:27;;;;;;;;;9.00;7.00;;;;;18.60;34.94;100066.19;5113496;28;8858;-65
2022/03/12 10:24:56;;;;;;;;;6.00;6.00;;;;;19.09;34.83;100063.25;5113439;28;8834;-66
2022/03/12 10:27:27;;;;;;;;;8.50;8.00;;;;;19.42;34.39;100064.00;5113975;28;8854;-65
2022/03/12 10:29:55;;;;;;;;;6.00;5.50;;;;;19.82;34.70;100061.94;5092643;28;8844;-65
2022/03/12 10:32:23;;;;;;;;;12.75;11.50;;;;;20.03;34.20;100058.59;5091974;28;9512;-65
2022/03/12 10:34:52;;;;;;;;;9.00;7.00;;;;;20.22;33.79;100056.31;5092763;28;8846;-65
2022/03/12 10:37:20;;;;;;;;;10.00;9.80;;;;;20.26;33.63;100067.59;5093349;28;8842;-65
2022/03/12 10:39:48;;;;;;;;;9.80;9.00;;;;;20.21;34.14;100072.69;5093375;28;8841;-65
2022/03/12 10:42:16;;;;;;;;;7.80;7.80;;;;;20.23;34.28;100070.66;5093498;28;8845;-65
2022/03/12 10:44:44;;;;;;;;;9.75;9.00;;;;;20.22;34.19;100075.22;5093438;28;8888;-66
2022/03/12 10:47:12;;;;;;;;;9.00;7.00;;;;;20.32;33.83;100061.47;5093666;28;8846;-66
2022/03/12 10:49:40;;;;;;;;;10.60;9.00;;;;;20.57;33.79;100074.63;5091899;28;8862;-67
2022/03/12 10:52:10;;;;;;;;;8.60;7.00;;;;;20.81;33.09;100063.56;5092498;28;8834;-65
2022/03/12 10:54:39;;;;;;;;;6.80;6.80;;;;;21.02;32.75;100069.97;5093479;28;8845;-66
2022/03/12 10:57:08;;;;;;;;;8.80;7.00;;;;;21.31;32.75;100069.13;5093736;28;8836;-67
2022/03/12 10:59:36;;;;;;;;;9.00;8.20;;;;;21.64;32.46;100063.13;5110552;28;8854;-65
2022/03/12 11:02:05;;;;;;;;;12.20;10.20;;;;;21.73;32.14;100069.31;5113592;28;8831;-65
2022/03/12 11:04:34;;;;;;;;;8.00;7.40;;;;;21.78;31.96;100069.59;5113437;28;8907;-66
2022/03/12 11:07:02;;;;;;;;;8.20;7.40;;;;;22.00;31.84;100055.88;5113256;28;8854;-68
2022/03/12 11:09:30;;;;;;;;;8.00;7.60;;;;;22.50;31.61;100063.09;5112056;28;8849;-65
2022/03/12 11:11:59;;;;;;;;;9.60;7.80;;;;;22.80;30.85;100048.28;5112038;28;8879;-67
2022/03/12 11:14:29;;;;;;;;;8.00;5.00;;;;;22.98;30.63;100048.66;5112701;28;8843;-67
2022/03/12 11:16:56;;;;;;;;;9.40;7.60;;;;;23.49;30.30;100056.31;5112559;28;9551;-65
2022/03/12 11:19:42;;;;;;;;;5.80;5.80;;;;;23.62;30.09;100055.53;5100833;28;9016;-66
2022/03/12 11:22:09;;;;;;;;;7.20;5.00;;;;;23.67;30.36;100045.72;5102149;28;8820;-66
2022/03/12 11:24:38;;;;;;;;;8.20;8.20;;;;;23.88;29.87;100051.06;5113117;28;8850;-65
2022/03/12 11:27:06;;;;;;;;;11.00;8.60;;;;;23.86;30.42;100053.16;5113298;28;8863;-65
2022/03/12 11:29:34;;;;;;;;;8.00;7.80;;;;;23.86;29.72;100045.00;5113011;28;8908;-66
2022/03/12 11:32:02;;;;;;;;;8.60;8.60;;;;;23.88;30.23;100050.22;5112765;28;8832;-66
2022/03/12 11:34:30;;;;;;;;;4.00;4.00;;;;;24.13;29.67;100038.56;5108295;28;8843;-65
2022/03/12 11:36:58;;;;;;;;;9.20;8.80;;;;;24.35;29.47;100040.06;5112310;28;8831;-64
2022/03/12 11:39:26;;;;;;;;;6.40;6.40;;;;;24.35;29.47;100031.91;5112803;28;9072;-66
2022/03/12 11:41:54;;;;;;;;;10.80;9.00;;;;;24.31;29.29;100035.25;5111897;28;8831;-65
2022/03/12 11:44:22;;;;;;;;;6.60;6.00;;;;;24.18;29.38;100035.22;5112420;28;8927;-66
2022/03/12 11:46:50;;;;;;;;;9.20;8.20;;;;;24.36;29.07;100041.72;5114813;28;8835;-66
2022/03/12 11:49:18;;;;;;;;;5.80;5.00;;;;;24.52;29.71;100032.34;5115372;28;8848;-65